Saint Petersburg, Russia
Current Conditions -  °F | °C
As of 11:30 AM on Friday 24 Oct 2014 (Local Time) from ULLI Reporting Station
Clear Clear  
Wind Chill: 26°   Ceiling: Unl
Heat Index: 32°   Visibility: 6mi
Dew Point: 27°   Wind: 7mph
Humidity: 80%   Direction: 190°S
Pressure: 30.71"   Gusts: NA
Location:  59.93°N, 30.32°E
Report Text: ULLI 240830Z 19003MPS CAVOK M00/M03 Q1040 60190045 10190060NOSIG
Loading
Personal Weather Stations






























Interactive Weather Map
Tropical Storm Tracking
New forecast layout! Learn more

10-Day Weather Forecast

Advertisements
Track Severe Weather on mobile